Pagrindinis puslapis
METAR-TAF:

METAR-TAF

Oro uostai :

Santa Marija, Pietų Rio Grandė, Brazilija

platuma: 29-43S, ilguma: 053-42W, Aukštis: 85 m

Dabartinis oras

Ataskaita buvo paskelbta 6 valandos ir 40 minutes, ne 02:00 UTC
Vėjas 8 kt iš Rytų
Temperatūra 26°C
Drėgmė 84%
Slėgis 1006 hPa
Matomumas 10 km arba daugiau
Mažai debesys ne aukštis 4000 ft

METAR: SBSM 160200Z 10008KT 9999 FEW040 26/23 Q1006

Laikas: 05:40 (08:40 UTC)

Prognozė

Ataskaita buvo paskelbta 5 valandos ir 40 minutes, ne 03:00 UTC
Prognozė galioja nuo 16 metu 06 UTC su 16 metu 18 UTC
Vėjas 8 kt iš Rytų/Pietryčių
Matomumas 10 km arba daugiau
Mažai debesys ne aukštis 2000 ft
Tikimybė 30% :
Laikinai
nuo 16 metu 14 UTC su 16 metu 18 UTC
Vėjas 5 kt iš Rytų
Matomumas: 4000 m
Mažai debesys ne aukštis 3000 ft
Mažai debesys ne aukštis 3500 ft, Liūtiniai kamuoliniai debesys.
perkūnija, lietus

TAF: SBSM 160300Z 1606/1618 12008KT 9999 FEW020 TN18/1608Z TX31/1618Z PROB30 TEMPO 1614/1618 09005KT 4000 TSRA FEW030 FEW035CB RMK PEG

Orai ataskaitas ir orų prognozės (METAR, TAF).

turimą stotys yra geltonos ir raudonos taškus žemėlapyje.

Perkelti pele per norėdami pamatyti stoties vardą.

Tada spustelėkite, norėdami matyti oro stebėjimo ir prognozės.

Norėdami pakeisti žemėlapį: spustelėkite ant žalios mygtukų su juodo kryžiaus žemyn,; žalią mygtuką su brūkšneliu, jei norite nutolinti; arba žalių rodyklių gretimoms žemėlapius.


METAR-TAF: